createdAt,value
2022-12-25T00:00:07.378Z,78.74
2022-12-25T00:02:37.473Z,78.92
2022-12-25T00:05:06.425Z,79.08
2022-12-25T00:07:34.967Z,78.96
2022-12-25T00:10:03.317Z,78.88
2022-12-25T00:12:31.688Z,78.99
2022-12-25T00:15:00.053Z,78.63
2022-12-25T00:17:28.391Z,79.46
2022-12-25T00:19:58.125Z,79.17
2022-12-25T00:22:26.641Z,79.55
2022-12-25T00:24:55.005Z,79.26
2022-12-25T00:27:23.362Z,79.47
2022-12-25T00:29:51.723Z,79.47
2022-12-25T00:32:20.294Z,79.63
2022-12-25T00:34:48.999Z,79.37
2022-12-25T00:37:18.764Z,80.09
2022-12-25T00:39:49.316Z,79.67
2022-12-25T00:42:20.568Z,79.88
2022-12-25T00:44:49.958Z,79.85
2022-12-25T00:47:18.872Z,80.13
2022-12-25T00:49:47.276Z,79.65
2022-12-25T00:52:15.676Z,79.80
2022-12-25T00:54:45.372Z,79.85
2022-12-25T00:57:13.727Z,80.29
2022-12-25T00:59:42.061Z,80.24
2022-12-25T01:02:25.604Z,79.62
2022-12-25T01:04:55.714Z,79.79
2022-12-25T01:07:25.598Z,79.62
2022-12-25T01:10:12.831Z,80.06
2022-12-25T01:12:43.597Z,79.58
2022-12-25T01:15:13.192Z,79.72
2022-12-25T01:17:42.551Z,79.76
2022-12-25T01:20:12.713Z,80.14
2022-12-25T01:22:41.126Z,80.06
2022-12-25T01:25:12.023Z,79.86
2022-12-25T01:27:42.138Z,80.48
2022-12-25T01:30:11.864Z,80.03
2022-12-25T01:32:40.153Z,80.50
2022-12-25T01:35:09.135Z,80.26
2022-12-25T01:37:37.510Z,80.27
2022-12-25T01:40:07.840Z,80.02
2022-12-25T01:42:37.617Z,79.88
2022-12-25T01:45:37.446Z,80.25
2022-12-25T01:48:13.203Z,80.50
2022-12-25T01:50:47.040Z,79.78
2022-12-25T01:53:15.495Z,80.10
2022-12-25T01:55:48.036Z,80.11
2022-12-25T01:58:19.146Z,80.60
2022-12-25T02:00:47.588Z,80.37
2022-12-25T02:03:15.978Z,80.51
2022-12-25T02:05:45.629Z,80.36
2022-12-25T02:08:17.552Z,80.65
2022-12-25T02:10:46.168Z,80.39
2022-12-25T02:13:19.473Z,80.53
2022-12-25T02:16:00.545Z,80.64
2022-12-25T02:18:41.595Z,80.79
2022-12-25T02:21:35.121Z,80.52
2022-12-25T02:24:28.368Z,81.16
2022-12-25T02:27:11.982Z,80.37
2022-12-25T02:29:54.332Z,80.80
2022-12-25T02:32:29.411Z,80.83
2022-12-25T02:35:02.390Z,81.07
2022-12-25T02:37:36.984Z,80.87
2022-12-25T02:40:10.291Z,80.92
2022-12-25T02:43:05.659Z,81.04
2022-12-25T02:45:57.167Z,81.38
2022-12-25T02:48:46.844Z,81.17
2022-12-25T02:51:34.751Z,81.20
2022-12-25T02:54:26.427Z,81.44
2022-12-25T02:57:15.451Z,81.37
2022-12-25T03:00:05.984Z,81.54
2022-12-25T03:02:53.828Z,81.60
2022-12-25T03:05:42.876Z,81.59
2022-12-25T03:08:15.740Z,81.31
2022-12-25T03:11:14.267Z,81.59
2022-12-25T03:13:47.573Z,81.65
2022-12-25T03:16:32.662Z,81.65
2022-12-25T03:19:22.892Z,81.06
2022-12-25T03:22:09.080Z,81.35
2022-12-25T03:24:54.952Z,81.75
2022-12-25T03:27:23.728Z,81.58
2022-12-25T03:30:09.709Z,81.69
2022-12-25T03:32:41.974Z,81.10
2022-12-25T03:35:25.759Z,81.49
2022-12-25T03:38:31.557Z,81.24
2022-12-25T03:41:27.992Z,80.91
2022-12-25T03:44:30.584Z,81.05
2022-12-25T03:47:38.960Z,81.12
2022-12-25T03:50:33.903Z,81.18
2022-12-25T03:53:24.936Z,81.19
2022-12-25T03:56:11.823Z,81.39
2022-12-25T03:59:09.255Z,80.88
2022-12-25T04:01:55.322Z,81.17
2022-12-25T04:04:41.320Z,81.09
2022-12-25T04:07:28.561Z,80.65
2022-12-25T04:10:13.938Z,81.27
2022-12-25T04:13:00.162Z,81.00
2022-12-25T04:15:46.223Z,81.36
2022-12-25T04:18:32.092Z,80.97
2022-12-25T04:21:32.290Z,81.04
2022-12-25T04:24:19.806Z,80.85
2022-12-25T04:27:05.377Z,81.11
2022-12-25T04:29:51.358Z,80.85
2022-12-25T04:32:48.761Z,81.12
2022-12-25T04:35:37.096Z,81.17
2022-12-25T04:38:05.580Z,80.95
2022-12-25T04:40:36.379Z,81.35
2022-12-25T04:43:04.828Z,80.94
2022-12-25T04:45:33.242Z,80.64
2022-12-25T04:48:01.697Z,80.68
2022-12-25T04:50:30.030Z,81.16
2022-12-25T04:52:58.570Z,80.91
2022-12-25T04:55:26.959Z,80.91
2022-12-25T04:57:56.664Z,81.19
2022-12-25T05:00:25.071Z,81.26
2022-12-25T05:02:53.524Z,81.34
2022-12-25T05:05:21.983Z,81.36
2022-12-25T05:07:50.322Z,81.12
2022-12-25T05:10:18.654Z,81.36
2022-12-25T05:12:47.046Z,81.52
2022-12-25T05:15:16.810Z,81.27
2022-12-25T05:17:45.119Z,81.28
2022-12-25T05:20:13.672Z,81.27
2022-12-25T05:22:43.068Z,81.87
2022-12-25T05:25:11.434Z,81.24
2022-12-25T05:27:39.967Z,81.56
2022-12-25T05:30:09.785Z,81.55
2022-12-25T05:32:39.474Z,81.65
2022-12-25T05:35:08.935Z,82.04
2022-12-25T05:37:38.554Z,81.43
2022-12-25T05:40:08.211Z,82.08
2022-12-25T05:42:36.577Z,81.68
2022-12-25T05:45:05.431Z,82.21
2022-12-25T05:47:33.775Z,82.18
2022-12-25T05:50:03.477Z,82.38
2022-12-25T05:52:33.190Z,81.95
2022-12-25T05:55:02.179Z,82.14
2022-12-25T05:57:30.825Z,82.59
2022-12-25T05:59:59.212Z,82.17
2022-12-25T06:02:27.822Z,82.01
2022-12-25T06:04:56.322Z,82.25
2022-12-25T06:07:26.173Z,82.32
2022-12-25T06:09:54.618Z,82.47
2022-12-25T06:12:23.018Z,82.24
2022-12-25T06:14:51.346Z,82.62
2022-12-25T06:17:19.666Z,82.34
2022-12-25T06:19:47.991Z,82.38
2022-12-25T06:22:16.306Z,82.22
2022-12-25T06:24:46.230Z,82.64
2022-12-25T06:27:14.643Z,82.45
2022-12-25T06:29:42.969Z,82.53
2022-12-25T06:32:11.265Z,82.67
2022-12-25T06:34:39.613Z,82.28
2022-12-25T06:37:07.955Z,82.42
2022-12-25T06:39:36.446Z,82.38
2022-12-25T06:42:06.260Z,82.42
2022-12-25T06:44:34.705Z,82.53
2022-12-25T06:47:03.017Z,82.41
2022-12-25T06:49:31.383Z,82.59
2022-12-25T06:51:59.749Z,82.38
2022-12-25T06:54:29.182Z,82.51
2022-12-25T06:56:57.518Z,82.38
2022-12-25T06:59:27.228Z,82.64
2022-12-25T07:01:57.349Z,82.25
2022-12-25T07:04:32.085Z,82.50
2022-12-25T07:07:07.965Z,82.51
2022-12-25T07:09:39.050Z,82.40
2022-12-25T07:12:15.147Z,82.46
2022-12-25T07:14:48.647Z,82.25
2022-12-25T07:17:17.609Z,82.44
2022-12-25T07:19:47.468Z,82.45
2022-12-25T07:22:16.020Z,82.07
2022-12-25T07:24:44.374Z,82.37
2022-12-25T07:27:12.875Z,82.10
2022-12-25T07:29:41.250Z,82.57
2022-12-25T07:32:11.026Z,82.40
2022-12-25T07:34:39.369Z,82.55
2022-12-25T07:37:07.722Z,82.28
2022-12-25T07:39:36.052Z,82.39
2022-12-25T07:42:04.616Z,82.56
2022-12-25T07:44:32.917Z,82.31
2022-12-25T07:47:01.306Z,82.11
2022-12-25T07:49:31.044Z,82.21
2022-12-25T07:51:59.405Z,82.65
2022-12-25T07:54:27.765Z,82.56
2022-12-25T07:56:56.756Z,82.08
2022-12-25T07:59:25.142Z,82.31
2022-12-25T08:01:53.771Z,81.83
2022-12-25T08:04:22.349Z,82.14
2022-12-25T08:06:52.025Z,82.19
2022-12-25T08:09:20.324Z,82.10
2022-12-25T08:11:49.268Z,81.74
2022-12-25T08:14:17.613Z,81.92
2022-12-25T08:16:47.094Z,81.85
2022-12-25T08:19:15.575Z,81.63
2022-12-25T08:21:43.968Z,81.68
2022-12-25T08:24:13.717Z,81.96
2022-12-25T08:26:42.184Z,81.53
2022-12-25T08:29:10.528Z,81.22
2022-12-25T08:31:45.747Z,81.14
2022-12-25T08:34:15.127Z,81.20
2022-12-25T08:36:43.581Z,80.87
2022-12-25T08:39:13.417Z,81.46
2022-12-25T08:41:41.841Z,80.47
2022-12-25T08:44:13.385Z,80.79
2022-12-25T08:46:41.826Z,80.70
2022-12-25T08:49:10.250Z,80.65
2022-12-25T08:51:39.090Z,81.07
2022-12-25T08:54:07.429Z,80.42
2022-12-25T08:56:37.624Z,81.04
2022-12-25T08:59:06.099Z,81.15
2022-12-25T09:01:34.657Z,81.00
2022-12-25T09:04:03.080Z,81.04
2022-12-25T09:06:31.688Z,81.60
2022-12-25T09:09:00.017Z,81.13
2022-12-25T09:11:28.585Z,81.47
2022-12-25T09:13:58.365Z,81.16
2022-12-25T09:16:26.809Z,80.79
2022-12-25T09:18:58.096Z,81.32
2022-12-25T09:21:27.455Z,81.15
2022-12-25T09:23:55.960Z,80.96
2022-12-25T09:26:24.305Z,81.42
2022-12-25T09:28:52.938Z,81.24
2022-12-25T09:31:23.582Z,81.37
2022-12-25T09:33:52.668Z,80.91
2022-12-25T09:36:23.451Z,81.29
2022-12-25T09:38:52.734Z,81.45
2022-12-25T09:41:28.385Z,81.29
2022-12-25T09:44:00.894Z,81.07
2022-12-25T09:46:42.880Z,80.92
2022-12-25T09:49:20.094Z,81.16
2022-12-25T09:51:53.854Z,81.13
2022-12-25T09:54:26.095Z,80.99
2022-12-25T09:56:54.457Z,80.75
2022-12-25T09:59:26.273Z,80.54
2022-12-25T10:02:11.496Z,80.53
2022-12-25T10:05:01.594Z,80.79
2022-12-25T10:07:41.832Z,80.65
2022-12-25T10:10:28.450Z,80.19
2022-12-25T10:13:07.368Z,80.01
2022-12-25T10:15:45.865Z,80.06
2022-12-25T10:18:44.695Z,80.14
2022-12-25T10:21:15.627Z,79.62
2022-12-25T10:23:47.868Z,79.99
2022-12-25T10:26:18.472Z,79.63
2022-12-25T10:28:49.029Z,79.71
2022-12-25T10:31:22.215Z,79.27
2022-12-25T10:33:53.769Z,79.22
2022-12-25T10:36:25.449Z,79.85
2022-12-25T10:38:54.690Z,79.34
2022-12-25T10:41:36.234Z,79.06
2022-12-25T10:44:15.030Z,79.63
2022-12-25T10:46:49.002Z,79.53
2022-12-25T10:49:21.847Z,79.24
2022-12-25T10:51:50.937Z,78.86
2022-12-25T10:54:22.741Z,79.10
2022-12-25T10:56:56.174Z,78.40
2022-12-25T10:59:25.084Z,78.46
2022-12-25T11:01:55.491Z,78.29
2022-12-25T11:04:28.740Z,78.44
2022-12-25T11:06:59.587Z,78.18
2022-12-25T11:09:28.763Z,78.10
2022-12-25T11:11:57.727Z,78.25
2022-12-25T11:14:28.121Z,78.01
2022-12-25T11:16:56.500Z,77.81
2022-12-25T11:19:29.240Z,77.50
2022-12-25T11:21:59.533Z,77.54
2022-12-25T11:24:29.622Z,77.31
2022-12-25T11:27:00.320Z,77.58
2022-12-25T11:29:37.424Z,77.31
2022-12-25T11:32:15.210Z,77.27
2022-12-25T11:34:47.381Z,76.95
2022-12-25T11:37:21.390Z,77.00
2022-12-25T11:39:49.801Z,77.10
2022-12-25T11:42:23.766Z,76.89
2022-12-25T11:45:03.418Z,76.79
2022-12-25T11:47:38.687Z,76.57
2022-12-25T11:50:20.335Z,76.77
2022-12-25T11:52:50.270Z,76.77
2022-12-25T11:55:23.084Z,76.45
2022-12-25T11:57:56.200Z,76.77
2022-12-25T12:00:24.948Z,76.52
2022-12-25T12:03:02.369Z,76.23
2022-12-25T12:05:38.584Z,76.18
2022-12-25T12:08:07.903Z,76.19
2022-12-25T12:10:58.673Z,76.05
2022-12-25T12:13:38.986Z,76.00
2022-12-25T12:16:09.066Z,76.19
2022-12-25T12:18:37.923Z,76.33
2022-12-25T12:21:12.364Z,75.89
2022-12-25T12:23:52.230Z,75.72
2022-12-25T12:26:21.841Z,75.85
2022-12-25T12:28:52.337Z,75.77
2022-12-25T12:31:20.804Z,75.72
2022-12-25T12:33:54.554Z,75.24
2022-12-25T12:36:35.472Z,75.51
2022-12-25T12:39:06.256Z,75.22
2022-12-25T12:41:47.080Z,75.00
2022-12-25T12:44:18.405Z,74.10
2022-12-25T12:46:54.615Z,73.43
2022-12-25T12:49:25.113Z,72.97
2022-12-25T12:52:07.158Z,72.39
2022-12-25T12:54:53.824Z,72.72
2022-12-25T12:57:29.267Z,73.06
2022-12-25T13:00:04.770Z,73.48
2022-12-25T13:03:15.569Z,73.40
2022-12-25T13:05:48.421Z,73.74
2022-12-25T13:08:33.255Z,73.53
2022-12-25T13:11:08.860Z,73.45
2022-12-25T13:13:41.537Z,73.05
2022-12-25T13:16:21.002Z,73.19
2022-12-25T13:18:51.093Z,73.19
2022-12-25T13:21:23.821Z,72.91
2022-12-25T13:23:59.705Z,72.75
2022-12-25T13:26:29.027Z,72.24
2022-12-25T13:28:57.563Z,71.97
2022-12-25T13:31:30.816Z,71.88
2022-12-25T13:34:03.694Z,72.08
2022-12-25T13:36:37.166Z,72.18
2022-12-25T13:39:15.026Z,72.15
2022-12-25T13:42:03.006Z,72.03
2022-12-25T13:44:41.191Z,71.72
2022-12-25T13:47:16.924Z,71.62
2022-12-25T13:49:46.245Z,71.29
2022-12-25T13:52:17.220Z,71.15
2022-12-25T13:54:57.888Z,70.69
2022-12-25T13:57:30.327Z,70.68
2022-12-25T13:59:59.155Z,70.47
2022-12-25T14:02:32.860Z,70.22
2022-12-25T14:05:01.324Z,69.63
2022-12-25T14:07:29.669Z,69.84
2022-12-25T14:10:03.246Z,70.05
2022-12-25T14:12:32.954Z,69.98
2022-12-25T14:15:01.881Z,69.67
2022-12-25T14:17:30.442Z,69.82
2022-12-25T14:20:07.800Z,69.96
2022-12-25T14:22:38.539Z,70.00
2022-12-25T14:25:17.275Z,70.22
2022-12-25T14:27:50.548Z,71.00
2022-12-25T14:30:19.518Z,71.55
2022-12-25T14:32:51.878Z,71.99
2022-12-25T14:35:23.476Z,71.94
2022-12-25T14:37:57.521Z,72.24
2022-12-25T14:40:30.375Z,72.50
2022-12-25T14:43:00.540Z,72.42
2022-12-25T14:45:32.916Z,72.37
2022-12-25T14:48:24.487Z,73.08
2022-12-25T14:51:00.123Z,73.16
2022-12-25T14:53:36.129Z,73.31
2022-12-25T14:56:10.230Z,73.30
2022-12-25T14:58:42.830Z,73.15
2022-12-25T15:01:22.411Z,73.53
2022-12-25T15:03:50.916Z,73.42
2022-12-25T15:06:21.791Z,74.01
2022-12-25T15:09:00.846Z,73.48
2022-12-25T15:11:31.077Z,74.21
2022-12-25T15:13:59.762Z,73.92
2022-12-25T15:16:32.212Z,73.67
2022-12-25T15:19:02.538Z,74.20
2022-12-25T15:21:34.175Z,74.37
2022-12-25T15:24:02.759Z,74.10
2022-12-25T15:26:33.362Z,74.46
2022-12-25T15:29:01.734Z,74.90
2022-12-25T15:31:32.090Z,74.54
2022-12-25T15:34:02.413Z,74.90
2022-12-25T15:36:31.098Z,74.72
2022-12-25T15:38:59.618Z,74.81
2022-12-25T15:41:48.540Z,75.26
2022-12-25T15:44:21.793Z,74.80
2022-12-25T15:46:51.189Z,75.18
2022-12-25T15:49:19.787Z,75.59
2022-12-25T15:51:48.176Z,75.61
2022-12-25T15:54:16.567Z,75.26
2022-12-25T15:56:48.202Z,75.35
2022-12-25T15:59:19.620Z,75.86
2022-12-25T16:01:51.311Z,75.90
2022-12-25T16:04:20.592Z,75.66
2022-12-25T16:06:49.205Z,75.94
2022-12-25T16:09:19.980Z,75.81
2022-12-25T16:11:48.654Z,75.81
2022-12-25T16:14:19.484Z,76.25
2022-12-25T16:16:47.864Z,76.44
2022-12-25T16:19:16.243Z,76.16
2022-12-25T16:21:46.595Z,76.56
2022-12-25T16:24:15.216Z,76.73
2022-12-25T16:26:44.935Z,76.56
2022-12-25T16:29:13.703Z,76.87
2022-12-25T16:31:43.667Z,76.53
2022-12-25T16:34:12.000Z,76.92
2022-12-25T16:36:40.356Z,76.86
2022-12-25T16:39:08.813Z,77.08
2022-12-25T16:41:37.447Z,76.63
2022-12-25T16:44:09.396Z,76.69
2022-12-25T16:46:38.984Z,77.28
2022-12-25T16:49:08.721Z,76.80
2022-12-25T16:51:37.141Z,77.20
2022-12-25T16:54:05.784Z,77.43
2022-12-25T16:56:36.496Z,77.39
2022-12-25T16:59:05.017Z,77.52
2022-12-25T17:01:33.475Z,77.39
2022-12-25T17:04:02.596Z,77.84
2022-12-25T17:06:32.379Z,77.48
2022-12-25T17:09:02.581Z,77.21
2022-12-25T17:11:31.722Z,77.44
2022-12-25T17:14:03.376Z,77.77
2022-12-25T17:16:33.927Z,77.35
2022-12-25T17:19:04.531Z,77.57
2022-12-25T17:21:34.928Z,77.67
2022-12-25T17:24:04.460Z,77.72
2022-12-25T17:26:32.855Z,78.12
2022-12-25T17:29:02.062Z,77.96
2022-12-25T17:31:30.861Z,77.71
2022-12-25T17:34:02.467Z,77.78
2022-12-25T17:36:31.257Z,77.70
2022-12-25T17:39:01.962Z,78.00
2022-12-25T17:41:30.519Z,78.48
2022-12-25T17:43:58.917Z,78.45
2022-12-25T17:46:29.461Z,78.55
2022-12-25T17:49:01.896Z,78.19
2022-12-25T17:51:32.232Z,77.95
2022-12-25T17:54:04.006Z,78.32
2022-12-25T17:56:32.936Z,78.61
2022-12-25T17:59:06.708Z,78.64
2022-12-25T18:01:37.646Z,78.52
2022-12-25T18:04:07.416Z,78.75
2022-12-25T18:06:37.297Z,78.24
2022-12-25T18:09:07.951Z,78.75
2022-12-25T18:11:39.595Z,78.37
2022-12-25T18:14:10.217Z,78.84
2022-12-25T18:16:42.033Z,78.50
2022-12-25T18:19:10.938Z,78.14
2022-12-25T18:21:39.330Z,79.07
2022-12-25T18:24:10.291Z,78.27
2022-12-25T18:26:38.638Z,78.57
2022-12-25T18:29:07.642Z,78.70
2022-12-25T18:31:36.981Z,78.69
2022-12-25T18:34:05.447Z,78.47
2022-12-25T18:36:33.929Z,79.05
2022-12-25T18:39:02.303Z,78.89
2022-12-25T18:41:51.994Z,78.95
2022-12-25T18:44:20.359Z,79.14
2022-12-25T18:46:48.696Z,79.22
2022-12-25T18:49:17.030Z,79.35
2022-12-25T18:51:45.407Z,78.95
2022-12-25T18:54:13.742Z,78.77
2022-12-25T18:56:43.490Z,79.09
2022-12-25T18:59:11.871Z,78.72
2022-12-25T19:01:40.365Z,79.54
2022-12-25T19:04:12.554Z,78.89
2022-12-25T19:06:41.117Z,79.37
2022-12-25T19:09:10.003Z,79.44
2022-12-25T19:11:46.003Z,79.23
2022-12-25T19:14:17.956Z,79.43
2022-12-25T19:16:46.325Z,79.48
2022-12-25T19:19:15.467Z,79.48
2022-12-25T19:21:43.903Z,79.10
2022-12-25T19:24:12.300Z,79.04
2022-12-25T19:26:40.702Z,79.33
2022-12-25T19:29:09.111Z,79.67
2022-12-25T19:31:39.408Z,79.25
2022-12-25T19:34:07.843Z,79.46
2022-12-25T19:36:36.793Z,79.67
2022-12-25T19:39:06.264Z,79.54
2022-12-25T19:41:34.808Z,79.21
2022-12-25T19:44:03.749Z,79.70
2022-12-25T19:46:34.341Z,79.34
2022-12-25T19:49:05.035Z,79.21
2022-12-25T19:51:36.382Z,79.37
2022-12-25T19:54:05.648Z,79.68
2022-12-25T19:56:34.854Z,79.88
2022-12-25T19:59:03.386Z,79.13
2022-12-25T20:01:33.092Z,79.43
2022-12-25T20:04:01.758Z,79.53
2022-12-25T20:06:33.305Z,79.69
2022-12-25T20:09:03.941Z,79.67
2022-12-25T20:11:34.071Z,80.02
2022-12-25T20:14:02.815Z,79.36
2022-12-25T20:16:31.246Z,79.59
2022-12-25T20:19:00.289Z,79.13
2022-12-25T20:21:29.876Z,79.42
2022-12-25T20:24:00.379Z,79.58
2022-12-25T20:26:30.808Z,80.06
2022-12-25T20:28:59.645Z,79.81
2022-12-25T20:31:29.603Z,79.46
2022-12-25T20:37:05.128Z,79.85
2022-12-25T20:39:34.852Z,79.98
2022-12-25T20:42:03.181Z,79.42
2022-12-25T20:44:31.615Z,79.33
2022-12-25T20:47:01.082Z,79.64
2022-12-25T20:49:32.438Z,79.38
2022-12-25T20:52:05.276Z,79.68
2022-12-25T20:54:35.840Z,79.76
2022-12-25T20:57:04.403Z,79.53
2022-12-25T20:59:37.441Z,79.36
2022-12-25T21:02:06.466Z,79.52
2022-12-25T21:04:34.938Z,79.48
2022-12-25T21:07:03.668Z,79.46
2022-12-25T21:09:32.061Z,79.78
2022-12-25T21:12:01.800Z,79.61
2022-12-25T21:14:30.449Z,79.76
2022-12-25T21:16:58.830Z,79.76
2022-12-25T21:19:27.297Z,79.78
2022-12-25T21:21:55.616Z,79.88
2022-12-25T21:24:23.986Z,79.63
2022-12-25T21:26:52.347Z,79.87
2022-12-25T21:29:24.359Z,79.73
2022-12-25T21:32:11.634Z,79.92
2022-12-25T21:34:40.220Z,79.66
2022-12-25T21:37:08.542Z,80.00
2022-12-25T21:39:36.957Z,79.21
2022-12-25T21:42:05.603Z,79.86
2022-12-25T21:44:35.340Z,79.86
2022-12-25T21:47:03.658Z,79.64
2022-12-25T21:49:49.495Z,79.71
2022-12-25T21:52:17.945Z,79.34
2022-12-25T21:54:46.492Z,79.88
2022-12-25T21:57:14.905Z,79.74
2022-12-25T21:59:44.617Z,79.69
2022-12-25T22:02:13.166Z,79.25
2022-12-25T22:04:41.755Z,79.68
2022-12-25T22:07:18.078Z,79.30
2022-12-25T22:09:47.293Z,79.63
2022-12-25T22:12:34.819Z,79.60
2022-12-25T22:15:07.375Z,79.52
2022-12-25T22:17:54.964Z,79.70
2022-12-25T22:20:25.363Z,79.68
2022-12-25T22:22:54.232Z,79.85
2022-12-25T22:25:23.441Z,79.99
2022-12-25T22:27:52.614Z,80.09
2022-12-25T22:30:24.868Z,79.88
2022-12-25T22:32:53.431Z,79.93
2022-12-25T22:35:22.383Z,80.15
2022-12-25T22:37:51.304Z,79.86
2022-12-25T22:40:20.973Z,80.01
2022-12-25T22:42:49.365Z,79.92
2022-12-25T22:45:18.131Z,80.05
2022-12-25T22:47:47.871Z,79.68
2022-12-25T22:50:16.246Z,79.45
2022-12-25T22:52:45.844Z,79.80
2022-12-25T22:55:17.791Z,79.44
2022-12-25T22:57:46.376Z,79.96
2022-12-25T23:00:15.086Z,79.85
2022-12-25T23:02:43.590Z,79.71
2022-12-25T23:05:13.476Z,79.74
2022-12-25T23:07:41.929Z,79.91
2022-12-25T23:10:11.728Z,80.00
2022-12-25T23:12:57.561Z,80.05
2022-12-25T23:15:27.594Z,79.77
2022-12-25T23:18:13.687Z,79.99
2022-12-25T23:21:01.055Z,80.33
2022-12-25T23:23:46.877Z,80.28
2022-12-25T23:26:17.555Z,80.02
2022-12-25T23:29:03.481Z,80.18
2022-12-25T23:31:34.828Z,80.13
2022-12-25T23:34:03.419Z,80.21
2022-12-25T23:36:33.299Z,80.26
2022-12-25T23:39:09.033Z,80.07
2022-12-25T23:41:39.108Z,80.07
2022-12-25T23:44:07.856Z,79.94
2022-12-25T23:46:36.674Z,80.16
2022-12-25T23:49:05.472Z,80.12
2022-12-25T23:51:36.530Z,80.05
2022-12-25T23:54:05.507Z,80.23
2022-12-25T23:56:34.024Z,80.40
2022-12-25T23:59:02.448Z,80.21
